createdAt,value
2017-08-08T00:00:16.628Z,66.99
2017-08-08T00:01:13.891Z,67.04
2017-08-08T00:02:11.158Z,67.04
2017-08-08T00:03:08.448Z,67.06
2017-08-08T00:04:05.680Z,67.11
2017-08-08T00:05:02.948Z,67.10
2017-08-08T00:06:00.191Z,67.14
2017-08-08T00:06:57.504Z,67.15
2017-08-08T00:07:54.752Z,67.19
2017-08-08T00:08:52.013Z,67.19
2017-08-08T00:09:49.256Z,67.21
2017-08-08T00:10:46.536Z,67.20
2017-08-08T00:11:43.779Z,67.25
2017-08-08T00:12:41.072Z,67.27
2017-08-08T00:13:38.320Z,67.29
2017-08-08T00:14:35.596Z,67.30
2017-08-08T00:15:32.836Z,67.33
2017-08-08T00:16:30.122Z,67.35
2017-08-08T00:17:27.384Z,67.37
2017-08-08T00:18:24.673Z,67.41
2017-08-08T00:19:21.916Z,67.43
2017-08-08T00:20:19.184Z,67.44
2017-08-08T00:21:16.413Z,67.49
2017-08-08T00:22:13.736Z,67.51
2017-08-08T00:23:10.985Z,67.55
2017-08-08T00:24:08.257Z,67.56
2017-08-08T00:25:05.506Z,67.57
2017-08-08T00:26:02.789Z,67.61
2017-08-08T00:27:00.064Z,67.64
2017-08-08T00:27:57.357Z,67.67
2017-08-08T00:28:54.591Z,67.70
2017-08-08T00:29:51.852Z,67.72
2017-08-08T00:30:49.095Z,67.73
2017-08-08T00:31:46.359Z,67.75
2017-08-08T00:32:43.608Z,67.77
2017-08-08T00:33:40.888Z,67.80
2017-08-08T00:34:42.105Z,67.83
2017-08-08T00:35:39.386Z,67.85
2017-08-08T00:36:36.620Z,67.89
2017-08-08T00:37:33.992Z,67.93
2017-08-08T00:38:31.229Z,67.95
2017-08-08T00:39:28.500Z,67.97
2017-08-08T00:40:25.749Z,67.99
2017-08-08T00:41:23.008Z,68.00
2017-08-08T00:42:20.247Z,68.03
2017-08-08T00:43:17.549Z,68.07
2017-08-08T00:44:14.788Z,68.09
2017-08-08T00:45:12.132Z,68.10
2017-08-08T00:46:09.355Z,68.16
2017-08-08T00:47:06.625Z,68.17
2017-08-08T00:48:03.888Z,68.18
2017-08-08T00:49:01.177Z,68.21
2017-08-08T00:49:58.416Z,68.21
2017-08-08T00:50:55.689Z,68.23
2017-08-08T00:51:52.999Z,68.26
2017-08-08T00:52:50.388Z,68.30
2017-08-08T00:53:47.653Z,68.34
2017-08-08T00:54:44.927Z,68.37
2017-08-08T00:55:42.168Z,68.39
2017-08-08T00:56:39.437Z,68.42
2017-08-08T00:57:36.672Z,68.44
2017-08-08T00:58:34.032Z,68.47
2017-08-08T00:59:31.264Z,68.50
2017-08-08T01:00:28.545Z,68.52
2017-08-08T01:01:25.771Z,68.57
2017-08-08T01:02:23.051Z,68.59
2017-08-08T01:03:20.324Z,68.62
2017-08-08T01:04:17.608Z,68.67
2017-08-08T01:05:14.932Z,68.67
2017-08-08T01:06:12.194Z,68.71
2017-08-08T01:07:09.441Z,68.71
2017-08-08T01:08:06.748Z,68.70
2017-08-08T01:09:04.001Z,68.76
2017-08-08T01:10:01.280Z,68.78
2017-08-08T01:10:58.528Z,68.81
2017-08-08T01:11:55.895Z,68.82
2017-08-08T01:12:53.136Z,68.89
2017-08-08T01:13:50.417Z,68.91
2017-08-08T01:14:47.678Z,68.94
2017-08-08T01:15:44.940Z,69.00
2017-08-08T01:16:42.178Z,69.02
2017-08-08T01:17:39.544Z,69.05
2017-08-08T01:18:36.811Z,69.07
2017-08-08T01:19:34.088Z,69.11
2017-08-08T01:20:31.320Z,69.11
2017-08-08T01:21:28.582Z,69.16
2017-08-08T01:22:25.825Z,69.17
2017-08-08T01:23:23.076Z,69.20
2017-08-08T01:24:20.348Z,69.21
2017-08-08T01:25:17.614Z,69.25
2017-08-08T01:26:14.877Z,69.27
2017-08-08T01:27:12.189Z,69.32
2017-08-08T01:28:09.433Z,69.34
2017-08-08T01:29:06.725Z,69.35
2017-08-08T01:30:04.029Z,69.39
2017-08-08T01:31:01.296Z,69.42
2017-08-08T01:31:58.535Z,69.45
2017-08-08T01:32:55.802Z,69.49
2017-08-08T01:33:53.053Z,69.52
2017-08-08T01:34:50.324Z,69.54
2017-08-08T01:35:47.572Z,69.60
2017-08-08T01:36:44.836Z,69.62
2017-08-08T01:37:42.071Z,69.64
2017-08-08T01:38:39.332Z,69.67
2017-08-08T01:39:36.585Z,69.69
2017-08-08T01:40:34.165Z,69.71
2017-08-08T01:41:31.405Z,69.72
2017-08-08T01:42:28.751Z,69.75
2017-08-08T01:43:26.052Z,69.78
2017-08-08T01:44:23.348Z,69.81
2017-08-08T01:45:20.588Z,69.84
2017-08-08T01:46:17.861Z,69.88
2017-08-08T01:47:15.092Z,69.90
2017-08-08T01:48:12.472Z,69.92
2017-08-08T01:49:09.728Z,69.93
2017-08-08T01:50:06.996Z,69.95
2017-08-08T01:51:04.243Z,69.98
2017-08-08T01:52:01.516Z,70.01
2017-08-08T01:52:58.758Z,70.04
2017-08-08T01:53:56.007Z,70.07
2017-08-08T01:54:53.260Z,70.08
2017-08-08T01:55:50.515Z,70.12
2017-08-08T01:56:47.749Z,70.13
2017-08-08T01:57:45.020Z,70.14
2017-08-08T01:58:42.247Z,70.19
2017-08-08T01:59:39.529Z,70.21
2017-08-08T02:00:36.788Z,70.25
2017-08-08T02:01:34.061Z,70.29
2017-08-08T02:02:31.288Z,70.30
2017-08-08T02:03:28.592Z,70.33
2017-08-08T02:04:25.829Z,70.35
2017-08-08T02:05:23.109Z,70.39
2017-08-08T02:06:20.343Z,70.42
2017-08-08T02:07:17.600Z,70.44
2017-08-08T02:08:14.836Z,70.45
2017-08-08T02:09:12.094Z,70.48
2017-08-08T02:10:09.352Z,70.50
2017-08-08T02:11:06.620Z,70.54
2017-08-08T02:12:03.868Z,70.58
2017-08-08T02:13:01.161Z,70.59
2017-08-08T02:13:58.405Z,70.61
2017-08-08T02:14:55.680Z,70.64
2017-08-08T02:15:52.912Z,70.68
2017-08-08T02:16:50.182Z,70.72
2017-08-08T02:17:47.427Z,70.71
2017-08-08T02:18:44.684Z,70.75
2017-08-08T02:19:41.915Z,70.82
2017-08-08T02:20:39.201Z,70.83
2017-08-08T02:21:36.433Z,70.87
2017-08-08T02:22:33.715Z,70.94
2017-08-08T02:23:30.932Z,70.95
2017-08-08T02:24:28.201Z,70.99
2017-08-08T02:25:25.475Z,71.02
2017-08-08T02:26:22.753Z,71.05
2017-08-08T02:27:20.001Z,71.08
2017-08-08T02:28:17.277Z,71.10
2017-08-08T02:29:14.518Z,71.14
2017-08-08T02:30:11.801Z,71.15
2017-08-08T02:31:09.041Z,71.21
2017-08-08T02:32:06.300Z,71.23
2017-08-08T02:33:03.548Z,71.25
2017-08-08T02:34:00.813Z,71.27
2017-08-08T02:34:58.043Z,71.31
2017-08-08T02:35:55.324Z,71.35
2017-08-08T02:36:52.547Z,71.37
2017-08-08T02:37:49.816Z,71.40
2017-08-08T02:38:47.055Z,71.41
2017-08-08T02:39:44.308Z,71.46
2017-08-08T02:40:41.569Z,71.49
2017-08-08T02:41:38.924Z,71.53
2017-08-08T02:42:36.143Z,71.58
2017-08-08T02:43:33.417Z,71.58
2017-08-08T02:44:30.655Z,71.62
2017-08-08T02:45:27.941Z,71.65
2017-08-08T02:46:25.184Z,71.64
2017-08-08T02:47:22.448Z,71.68
2017-08-08T02:48:19.680Z,71.69
2017-08-08T02:49:16.948Z,71.68
2017-08-08T02:50:14.197Z,71.71
2017-08-08T02:51:11.481Z,71.73
2017-08-08T02:52:08.734Z,71.78
2017-08-08T02:53:06.004Z,71.81
2017-08-08T02:54:03.252Z,71.86
2017-08-08T02:55:00.513Z,71.87
2017-08-08T02:55:57.769Z,71.88
2017-08-08T02:56:55.040Z,71.89
2017-08-08T02:57:52.292Z,71.93
2017-08-08T02:58:49.558Z,71.94
2017-08-08T02:59:46.800Z,71.97
2017-08-08T03:00:44.089Z,71.99
2017-08-08T03:01:41.344Z,72.01
2017-08-08T03:02:38.696Z,72.02
2017-08-08T03:03:35.935Z,72.05
2017-08-08T03:04:33.195Z,72.09
2017-08-08T03:05:30.441Z,72.12
2017-08-08T03:06:27.724Z,72.15
2017-08-08T03:07:24.969Z,72.14
2017-08-08T03:08:22.228Z,72.18
2017-08-08T03:09:19.455Z,72.20
2017-08-08T03:10:16.724Z,72.21
2017-08-08T03:11:13.996Z,72.24
2017-08-08T03:12:11.268Z,72.24
2017-08-08T03:13:08.496Z,72.25
2017-08-08T03:14:05.756Z,72.26
2017-08-08T03:15:02.992Z,72.30
2017-08-08T03:16:00.346Z,72.31
2017-08-08T03:16:57.615Z,72.34
2017-08-08T03:17:54.888Z,72.35
2017-08-08T03:18:52.128Z,72.37
2017-08-08T03:19:49.399Z,72.38
2017-08-08T03:20:46.633Z,72.39
2017-08-08T03:21:43.911Z,72.41
2017-08-08T03:22:41.142Z,72.44
2017-08-08T03:23:38.408Z,72.49
2017-08-08T03:24:35.640Z,72.47
2017-08-08T03:25:32.940Z,72.47
2017-08-08T03:26:30.262Z,72.48
2017-08-08T03:27:27.545Z,72.49
2017-08-08T03:28:24.786Z,72.50
2017-08-08T03:29:22.060Z,72.55
2017-08-08T03:30:19.305Z,72.55
2017-08-08T03:31:16.573Z,72.58
2017-08-08T03:32:13.820Z,72.60
2017-08-08T03:33:11.092Z,72.60
2017-08-08T03:34:08.333Z,72.65
2017-08-08T03:35:05.593Z,72.65
2017-08-08T03:36:02.841Z,72.68
2017-08-08T03:37:00.131Z,72.69
2017-08-08T03:37:57.376Z,72.70
2017-08-08T03:38:54.796Z,72.72
2017-08-08T03:39:52.032Z,72.74
2017-08-08T03:40:49.284Z,72.75
2017-08-08T03:41:46.517Z,72.78
2017-08-08T03:42:43.787Z,72.81
2017-08-08T03:43:41.024Z,72.79
2017-08-08T03:44:38.283Z,72.81
2017-08-08T03:45:35.524Z,72.87
2017-08-08T03:46:32.768Z,72.84
2017-08-08T03:47:30.012Z,72.86
2017-08-08T03:48:27.273Z,72.85
2017-08-08T03:49:24.499Z,72.88
2017-08-08T03:50:21.775Z,72.90
2017-08-08T03:51:19.012Z,72.91
2017-08-08T03:52:16.297Z,72.93
2017-08-08T03:53:13.548Z,72.93
2017-08-08T03:54:10.808Z,72.97
2017-08-08T03:55:08.037Z,72.97
2017-08-08T03:56:05.291Z,72.99
2017-08-08T03:57:02.560Z,73.00
2017-08-08T03:57:59.823Z,73.00
2017-08-08T03:58:57.061Z,73.02
2017-08-08T03:59:54.349Z,73.04
2017-08-08T04:00:51.593Z,73.06
2017-08-08T04:01:48.868Z,73.07
2017-08-08T04:02:46.127Z,73.08
2017-08-08T04:03:43.397Z,73.10
2017-08-08T04:04:40.652Z,73.08
2017-08-08T04:05:37.912Z,73.13
2017-08-08T04:06:35.140Z,73.14
2017-08-08T04:07:32.432Z,73.17
2017-08-08T04:08:29.668Z,73.21
2017-08-08T04:09:26.941Z,73.21
2017-08-08T04:10:24.201Z,73.24
2017-08-08T04:11:21.489Z,73.25
2017-08-08T04:12:18.727Z,73.27
2017-08-08T04:13:16.028Z,73.28
2017-08-08T04:14:13.888Z,73.31
2017-08-08T04:15:11.148Z,73.34
2017-08-08T04:16:08.376Z,73.34
2017-08-08T04:17:05.647Z,73.38
2017-08-08T04:18:02.913Z,73.39
2017-08-08T04:19:00.193Z,73.40
2017-08-08T04:19:57.440Z,73.43
2017-08-08T04:20:54.716Z,73.42
2017-08-08T04:21:51.952Z,73.45
2017-08-08T04:22:49.232Z,73.47
2017-08-08T04:23:46.473Z,73.49
2017-08-08T04:24:43.860Z,73.52
2017-08-08T04:25:41.157Z,73.53
2017-08-08T04:26:38.481Z,73.54
2017-08-08T04:27:35.769Z,73.57
2017-08-08T04:28:33.064Z,73.59
2017-08-08T04:29:30.356Z,73.61
2017-08-08T04:30:27.649Z,73.62
2017-08-08T04:31:24.892Z,73.63
2017-08-08T04:32:22.165Z,73.63
2017-08-08T04:33:19.414Z,73.67
2017-08-08T04:34:16.727Z,73.67
2017-08-08T04:35:13.972Z,73.67
2017-08-08T04:36:11.246Z,73.70
2017-08-08T04:37:08.493Z,73.72
2017-08-08T04:38:05.760Z,73.73
2017-08-08T04:39:03.012Z,73.75
2017-08-08T04:40:00.315Z,73.76
2017-08-08T04:40:57.576Z,73.78
2017-08-08T04:41:54.847Z,73.79
2017-08-08T04:42:52.101Z,73.82
2017-08-08T04:43:49.393Z,73.84
2017-08-08T04:44:46.644Z,73.84
2017-08-08T04:45:43.915Z,73.86
2017-08-08T04:46:41.162Z,73.87
2017-08-08T04:47:38.433Z,73.92
2017-08-08T04:48:35.684Z,73.94
2017-08-08T04:49:32.961Z,73.98
2017-08-08T04:50:30.200Z,73.97
2017-08-08T04:51:27.485Z,74.00
2017-08-08T04:52:24.732Z,74.00
2017-08-08T04:53:22.027Z,74.03
2017-08-08T04:54:19.309Z,74.04
2017-08-08T04:55:16.601Z,74.06
2017-08-08T04:56:13.860Z,74.07
2017-08-08T04:57:11.185Z,74.09
2017-08-08T04:58:08.421Z,74.12
2017-08-08T04:59:05.721Z,74.15
2017-08-08T05:00:03.072Z,74.16
2017-08-08T05:01:00.527Z,74.18
2017-08-08T05:01:57.777Z,74.20
2017-08-08T05:02:55.042Z,74.25
2017-08-08T05:03:52.337Z,74.25
2017-08-08T05:04:49.608Z,74.26
2017-08-08T05:05:46.854Z,74.32
2017-08-08T05:06:44.124Z,74.31
2017-08-08T05:07:41.368Z,74.33
2017-08-08T05:08:38.636Z,74.35
2017-08-08T05:09:35.899Z,74.36
2017-08-08T05:10:33.177Z,74.36
2017-08-08T05:11:30.408Z,74.37
2017-08-08T05:12:27.684Z,74.40
2017-08-08T05:13:25.018Z,74.45
2017-08-08T05:14:22.372Z,74.45
2017-08-08T05:15:20.002Z,74.47
2017-08-08T05:16:17.276Z,74.49
2017-08-08T05:17:14.520Z,74.53
2017-08-08T05:18:11.789Z,74.58
2017-08-08T05:19:09.067Z,74.59
2017-08-08T05:20:06.348Z,74.60
2017-08-08T05:21:03.591Z,74.63
2017-08-08T05:22:00.876Z,74.65
2017-08-08T05:22:58.138Z,74.67
2017-08-08T05:23:55.408Z,74.69
2017-08-08T05:24:52.660Z,74.72
2017-08-08T05:25:49.948Z,74.71
2017-08-08T05:26:47.259Z,74.71
2017-08-08T05:27:44.552Z,74.74
2017-08-08T05:28:41.805Z,74.74
2017-08-08T05:29:39.100Z,74.78
2017-08-08T05:30:36.343Z,74.80
2017-08-08T05:31:33.629Z,74.84
2017-08-08T05:32:30.889Z,74.88
2017-08-08T05:33:28.168Z,74.91
2017-08-08T05:34:25.476Z,74.93
2017-08-08T05:35:22.806Z,74.96
2017-08-08T05:36:20.052Z,74.99
2017-08-08T05:37:17.340Z,75.02
2017-08-08T05:38:14.596Z,75.04
2017-08-08T05:39:11.868Z,75.07
2017-08-08T05:40:09.181Z,75.08
2017-08-08T05:41:06.461Z,75.08
2017-08-08T05:42:03.697Z,75.14
2017-08-08T05:43:00.985Z,75.17
2017-08-08T05:43:58.349Z,75.17
2017-08-08T05:44:55.748Z,75.18
2017-08-08T05:45:53.099Z,75.18
2017-08-08T05:46:50.532Z,75.22
2017-08-08T05:47:47.784Z,75.21
2017-08-08T05:48:45.054Z,75.22
2017-08-08T05:49:42.348Z,75.23
2017-08-08T05:50:39.636Z,75.22
2017-08-08T05:51:36.890Z,75.24
2017-08-08T05:52:34.300Z,75.23
2017-08-08T05:53:31.552Z,75.26
2017-08-08T05:54:28.833Z,75.30
2017-08-08T05:55:26.089Z,75.31
2017-08-08T05:56:23.364Z,75.31
2017-08-08T05:57:20.603Z,75.31
2017-08-08T05:58:17.881Z,75.32
2017-08-08T05:59:15.193Z,75.32
2017-08-08T06:00:12.501Z,75.33
2017-08-08T06:01:09.761Z,75.37
2017-08-08T06:02:07.048Z,75.39
2017-08-08T06:03:04.309Z,75.37
2017-08-08T06:04:01.639Z,75.40
2017-08-08T06:04:58.949Z,75.41
2017-08-08T06:05:56.328Z,75.43
2017-08-08T06:06:53.730Z,75.44
2017-08-08T06:07:51.119Z,75.49
2017-08-08T06:08:48.405Z,75.51
2017-08-08T06:09:45.734Z,75.52
2017-08-08T06:10:42.996Z,75.54
2017-08-08T06:11:40.285Z,75.52
2017-08-08T06:12:37.529Z,75.57
2017-08-08T06:13:34.839Z,75.57
2017-08-08T06:14:32.316Z,75.58
2017-08-08T06:15:29.612Z,75.63
2017-08-08T06:16:26.883Z,75.64
2017-08-08T06:17:24.152Z,75.65
2017-08-08T06:18:21.412Z,75.66
2017-08-08T06:19:18.708Z,75.67
2017-08-08T06:20:15.965Z,75.68
2017-08-08T06:21:13.252Z,75.71
2017-08-08T06:22:10.513Z,75.75
2017-08-08T06:23:07.800Z,75.76
2017-08-08T06:24:05.068Z,75.78
2017-08-08T06:25:02.357Z,75.77
2017-08-08T06:25:59.681Z,75.80
2017-08-08T06:26:57.356Z,75.81
2017-08-08T06:27:54.595Z,75.86
2017-08-08T06:28:51.861Z,75.89
2017-08-08T06:29:49.125Z,75.89
2017-08-08T06:30:46.398Z,75.92
2017-08-08T06:31:43.652Z,75.96
2017-08-08T06:32:40.938Z,75.94
2017-08-08T06:33:38.250Z,75.99
2017-08-08T06:34:35.539Z,76.01
2017-08-08T06:35:32.787Z,76.02
2017-08-08T06:36:30.075Z,76.04
2017-08-08T06:37:27.312Z,76.07
2017-08-08T06:38:24.596Z,76.07
2017-08-08T06:39:21.900Z,76.08
2017-08-08T06:40:19.192Z,76.14
2017-08-08T06:41:16.448Z,76.15
2017-08-08T06:42:13.738Z,76.13
2017-08-08T06:43:10.989Z,76.16
2017-08-08T06:44:08.278Z,76.16
2017-08-08T06:45:05.516Z,76.21
2017-08-08T06:46:02.805Z,76.23
2017-08-08T06:47:00.056Z,76.27
2017-08-08T06:47:57.318Z,76.31
2017-08-08T06:48:54.572Z,76.34
2017-08-08T06:49:51.849Z,76.34
2017-08-08T06:50:49.082Z,76.38
2017-08-08T06:51:46.372Z,76.38
2017-08-08T06:52:43.623Z,76.40
2017-08-08T06:53:40.885Z,76.45
2017-08-08T06:54:38.127Z,76.46
2017-08-08T06:55:35.396Z,76.50
2017-08-08T06:56:32.642Z,76.54
2017-08-08T06:57:29.965Z,76.59
2017-08-08T06:58:27.201Z,76.58
2017-08-08T06:59:24.465Z,76.62
2017-08-08T07:00:21.713Z,76.66
2017-08-08T07:01:18.979Z,76.66
2017-08-08T07:02:16.241Z,76.67
2017-08-08T07:03:13.510Z,76.70
2017-08-08T07:04:10.753Z,76.70
2017-08-08T07:05:08.045Z,76.75
2017-08-08T07:06:05.305Z,76.79
2017-08-08T07:07:02.597Z,76.80
2017-08-08T07:07:59.885Z,76.78
2017-08-08T07:08:57.164Z,76.83
2017-08-08T07:09:54.404Z,76.88
2017-08-08T07:10:51.675Z,76.90
2017-08-08T07:11:48.944Z,76.91
2017-08-08T07:12:46.234Z,76.94
2017-08-08T07:13:43.468Z,76.96
2017-08-08T07:14:40.753Z,76.98
2017-08-08T07:15:38.007Z,77.00
2017-08-08T07:16:35.301Z,77.02
2017-08-08T07:17:32.569Z,77.06
2017-08-08T07:18:29.833Z,77.09
2017-08-08T07:19:27.082Z,77.12
2017-08-08T07:20:24.388Z,77.13
2017-08-08T07:21:21.624Z,77.16
2017-08-08T07:22:18.914Z,77.20
2017-08-08T07:23:16.151Z,77.24
2017-08-08T07:24:13.420Z,77.30
2017-08-08T07:25:10.679Z,77.31
2017-08-08T07:26:08.092Z,77.34
2017-08-08T07:27:05.365Z,77.39
2017-08-08T07:28:02.756Z,77.40
2017-08-08T07:29:00.018Z,77.41
2017-08-08T07:29:57.320Z,77.43
2017-08-08T07:30:54.577Z,77.45
2017-08-08T07:31:51.876Z,77.50
2017-08-08T07:32:49.136Z,77.51
2017-08-08T07:33:46.417Z,77.51
2017-08-08T07:34:43.661Z,77.48
2017-08-08T07:35:40.933Z,77.52
2017-08-08T07:36:38.161Z,77.52
2017-08-08T07:37:35.440Z,77.51
2017-08-08T07:38:32.694Z,77.51
2017-08-08T07:39:29.981Z,77.51
2017-08-08T07:40:27.233Z,77.50
2017-08-08T07:41:24.504Z,77.52
2017-08-08T07:42:21.765Z,77.53
2017-08-08T07:43:19.074Z,77.55
2017-08-08T07:44:16.324Z,77.59
2017-08-08T07:45:13.600Z,77.60
2017-08-08T07:46:10.845Z,77.63
2017-08-08T07:47:08.116Z,77.69
2017-08-08T07:48:10.511Z,77.70
2017-08-08T07:49:07.773Z,77.71
2017-08-08T07:50:05.004Z,77.67
2017-08-08T07:51:02.269Z,77.72
2017-08-08T07:51:59.507Z,77.72
2017-08-08T07:52:56.771Z,77.73
2017-08-08T07:53:54.032Z,77.76
2017-08-08T07:54:51.303Z,77.79
2017-08-08T07:55:48.540Z,77.78
2017-08-08T07:56:45.825Z,77.84
2017-08-08T07:57:43.076Z,77.88
2017-08-08T07:58:40.369Z,77.87
2017-08-08T07:59:37.624Z,77.89
2017-08-08T08:00:34.893Z,77.93
2017-08-08T08:01:32.140Z,77.96
2017-08-08T08:02:29.424Z,77.97
2017-08-08T08:03:26.697Z,78.01
2017-08-08T08:04:23.960Z,78.02
2017-08-08T08:05:21.204Z,78.04
2017-08-08T08:06:18.471Z,78.03
2017-08-08T08:07:15.707Z,78.07
2017-08-08T08:08:12.976Z,78.09
2017-08-08T08:09:10.228Z,78.11
2017-08-08T08:10:07.504Z,78.16
2017-08-08T08:11:04.766Z,78.17
2017-08-08T08:12:02.064Z,78.20
2017-08-08T08:12:59.322Z,78.23
2017-08-08T08:13:56.697Z,78.24
2017-08-08T08:14:53.948Z,78.27
2017-08-08T08:15:51.206Z,78.30
2017-08-08T08:16:48.446Z,78.32
2017-08-08T08:17:45.725Z,78.35
2017-08-08T08:18:43.028Z,78.37
2017-08-08T08:19:40.323Z,78.42
2017-08-08T08:20:37.576Z,78.49
2017-08-08T08:21:34.857Z,78.51
2017-08-08T08:22:32.108Z,78.51
2017-08-08T08:23:29.388Z,78.53
2017-08-08T08:24:26.672Z,78.56
2017-08-08T08:25:23.966Z,78.57
2017-08-08T08:26:21.228Z,78.63
2017-08-08T08:27:18.524Z,78.67
2017-08-08T08:28:15.812Z,78.67
2017-08-08T08:29:13.112Z,78.67
2017-08-08T08:30:10.365Z,78.71
2017-08-08T08:31:07.641Z,78.74
2017-08-08T08:32:04.872Z,78.77
2017-08-08T08:33:02.174Z,78.79
2017-08-08T08:33:59.442Z,78.78
2017-08-08T08:34:56.822Z,78.81
2017-08-08T08:35:54.082Z,78.83
2017-08-08T08:36:51.381Z,78.84
2017-08-08T08:37:48.652Z,78.86
2017-08-08T08:38:45.933Z,78.88
2017-08-08T08:39:43.238Z,78.92
2017-08-08T08:40:40.550Z,78.94
2017-08-08T08:41:37.798Z,78.97
2017-08-08T08:42:35.137Z,79.01
2017-08-08T08:43:32.375Z,79.03
2017-08-08T08:44:30.600Z,79.07
2017-08-08T08:45:27.929Z,79.12
2017-08-08T08:46:25.314Z,79.19
2017-08-08T08:47:22.656Z,79.21
2017-08-08T08:48:19.996Z,79.25
2017-08-08T08:49:17.631Z,79.28
2017-08-08T08:50:16.008Z,79.31
2017-08-08T08:51:13.324Z,79.36
2017-08-08T08:52:10.590Z,79.40
2017-08-08T08:53:07.867Z,79.45
2017-08-08T08:54:05.209Z,79.47
2017-08-08T08:55:02.615Z,79.52
2017-08-08T08:55:59.989Z,79.53
2017-08-08T08:56:57.337Z,79.56
2017-08-08T08:57:54.646Z,79.62
2017-08-08T08:58:51.943Z,79.65
2017-08-08T08:59:49.353Z,79.67
2017-08-08T09:00:46.660Z,79.67
2017-08-08T09:01:44.296Z,79.72
2017-08-08T09:02:41.641Z,79.73
2017-08-08T09:03:38.918Z,79.75
2017-08-08T09:04:36.232Z,79.75
2017-08-08T09:05:33.628Z,79.77
2017-08-08T09:06:31.672Z,79.76
2017-08-08T09:07:29.168Z,79.80
2017-08-08T09:08:26.437Z,79.79
2017-08-08T09:09:23.798Z,79.82
2017-08-08T09:10:21.069Z,79.85
2017-08-08T09:11:18.336Z,79.85
2017-08-08T09:12:15.613Z,79.86
2017-08-08T09:13:12.891Z,79.88
2017-08-08T09:14:10.213Z,79.92
2017-08-08T09:15:07.581Z,79.94
2017-08-08T09:16:04.932Z,79.97
2017-08-08T09:17:02.205Z,79.95
2017-08-08T09:18:00.176Z,79.94
2017-08-08T09:18:57.548Z,79.95
2017-08-08T09:19:54.801Z,79.96
2017-08-08T09:20:52.973Z,79.97
2017-08-08T09:21:50.209Z,79.97
2017-08-08T09:22:47.497Z,80.00
2017-08-08T09:23:44.763Z,80.01
2017-08-08T09:24:42.047Z,80.05
2017-08-08T09:25:39.300Z,80.10
2017-08-08T09:26:36.748Z,80.12
2017-08-08T09:27:34.019Z,80.17
2017-08-08T09:28:31.312Z,80.19
2017-08-08T09:29:28.660Z,80.22
2017-08-08T09:30:26.029Z,80.23
2017-08-08T09:31:23.330Z,80.30
2017-08-08T09:32:20.614Z,80.32
2017-08-08T09:33:17.908Z,80.36
2017-08-08T09:34:15.229Z,80.38
2017-08-08T09:35:12.473Z,80.41
2017-08-08T09:36:09.773Z,80.44
2017-08-08T09:37:07.093Z,80.45
2017-08-08T09:38:04.404Z,80.49
2017-08-08T09:39:01.695Z,80.51
2017-08-08T09:39:59.103Z,80.52
2017-08-08T09:40:56.470Z,80.52
2017-08-08T09:41:53.901Z,80.56
2017-08-08T09:42:51.163Z,80.59
2017-08-08T09:43:48.462Z,80.63
2017-08-08T09:44:45.720Z,80.63
2017-08-08T09:45:43.045Z,80.67
2017-08-08T09:46:40.316Z,80.69
2017-08-08T09:47:37.600Z,80.70
2017-08-08T09:48:34.915Z,80.75
2017-08-08T09:49:32.224Z,80.77
2017-08-08T09:50:29.488Z,80.80
2017-08-08T09:51:26.806Z,80.81
2017-08-08T09:52:24.094Z,80.85
2017-08-08T09:53:21.408Z,80.83
2017-08-08T09:54:18.680Z,80.87
2017-08-08T09:55:15.993Z,80.87
2017-08-08T09:56:13.357Z,80.92
2017-08-08T09:57:10.680Z,80.95
2017-08-08T09:58:07.963Z,80.97
2017-08-08T09:59:05.266Z,81.01
2017-08-08T10:00:02.550Z,81.05
2017-08-08T10:00:59.845Z,81.03
2017-08-08T10:01:57.128Z,81.07
2017-08-08T10:02:54.412Z,81.06
2017-08-08T10:03:51.680Z,81.06
2017-08-08T10:04:48.957Z,81.09
2017-08-08T10:05:46.240Z,81.13
2017-08-08T10:06:43.626Z,81.14
2017-08-08T10:07:40.923Z,81.16
2017-08-08T10:08:38.268Z,81.15
2017-08-08T10:09:35.563Z,81.19
2017-08-08T10:10:32.989Z,81.22
2017-08-08T10:11:30.317Z,81.22
2017-08-08T10:12:27.618Z,81.27
2017-08-08T10:13:24.890Z,81.28
2017-08-08T10:14:22.293Z,81.30
2017-08-08T10:15:19.543Z,81.34
2017-08-08T10:16:16.836Z,81.37
2017-08-08T10:17:14.168Z,81.40
2017-08-08T10:18:11.467Z,81.41
2017-08-08T10:19:08.744Z,81.45
2017-08-08T10:20:06.047Z,81.48
2017-08-08T10:21:03.332Z,81.49
2017-08-08T10:22:00.681Z,81.49
2017-08-08T10:22:57.989Z,81.52
2017-08-08T10:23:55.350Z,81.57
2017-08-08T10:24:52.660Z,81.58
2017-08-08T10:25:49.995Z,81.59
2017-08-08T10:26:47.434Z,81.58
2017-08-08T10:27:44.795Z,81.59
2017-08-08T10:28:42.184Z,81.60
2017-08-08T10:29:39.554Z,81.60
2017-08-08T10:30:36.909Z,81.63
2017-08-08T10:31:34.272Z,81.66
2017-08-08T10:32:31.581Z,81.71
2017-08-08T10:33:28.977Z,81.74
2017-08-08T10:34:26.335Z,81.74
2017-08-08T10:35:23.657Z,81.80
2017-08-08T10:36:20.968Z,81.83
2017-08-08T10:37:18.404Z,81.86
2017-08-08T10:38:15.779Z,81.91
2017-08-08T10:39:13.143Z,81.96
2017-08-08T10:40:10.420Z,82.01
2017-08-08T10:41:07.729Z,82.06
2017-08-08T10:42:04.985Z,82.08
2017-08-08T10:43:02.310Z,82.16
2017-08-08T10:43:59.575Z,82.18
2017-08-08T10:44:56.870Z,82.21
2017-08-08T10:45:54.149Z,82.25
2017-08-08T10:46:51.487Z,82.27
2017-08-08T10:47:48.762Z,82.33
2017-08-08T10:48:46.037Z,82.35
2017-08-08T10:49:43.336Z,82.35
2017-08-08T10:50:40.629Z,82.37
2017-08-08T10:51:37.885Z,82.40
2017-08-08T10:52:35.197Z,82.43
2017-08-08T10:53:32.479Z,82.46
2017-08-08T10:54:29.760Z,82.47
2017-08-08T10:55:27.033Z,82.51
2017-08-08T10:56:24.296Z,82.50
2017-08-08T10:57:21.548Z,82.54
2017-08-08T10:58:18.851Z,82.56
2017-08-08T10:59:16.132Z,82.59
2017-08-08T11:00:13.413Z,82.58
2017-08-08T11:01:10.651Z,82.61
2017-08-08T11:02:07.932Z,82.60
2017-08-08T11:03:05.201Z,82.64
2017-08-08T11:04:02.486Z,82.66
2017-08-08T11:04:59.749Z,82.69
2017-08-08T11:05:57.061Z,82.71
2017-08-08T11:06:54.313Z,82.72
2017-08-08T11:07:51.637Z,82.76
2017-08-08T11:08:49.013Z,82.76
2017-08-08T11:09:46.439Z,82.78
2017-08-08T11:10:43.721Z,82.82
2017-08-08T11:11:41.035Z,82.84
2017-08-08T11:12:38.406Z,82.87
2017-08-08T11:13:35.776Z,82.87
2017-08-08T11:14:33.084Z,82.92
2017-08-08T11:15:30.390Z,82.96
2017-08-08T11:16:27.713Z,82.98
2017-08-08T11:17:25.037Z,83.03
2017-08-08T11:18:22.380Z,83.06
2017-08-08T11:19:19.809Z,83.12
2017-08-08T11:20:17.061Z,83.18
2017-08-08T11:21:14.342Z,83.24
2017-08-08T11:22:11.662Z,83.25
2017-08-08T11:23:08.977Z,83.30
2017-08-08T11:24:06.238Z,83.33
2017-08-08T11:25:03.522Z,83.37
2017-08-08T11:26:00.819Z,83.40
2017-08-08T11:26:58.133Z,83.40
2017-08-08T11:27:55.427Z,83.45
2017-08-08T11:28:52.830Z,83.45
2017-08-08T11:29:50.098Z,83.51
2017-08-08T11:30:47.409Z,83.56
2017-08-08T11:31:44.705Z,83.61
2017-08-08T11:32:42.024Z,83.63
2017-08-08T11:33:39.306Z,83.68
2017-08-08T11:34:36.643Z,83.70
2017-08-08T11:35:33.900Z,83.70
2017-08-08T11:36:31.181Z,83.72
2017-08-08T11:37:28.493Z,83.73
2017-08-08T11:38:25.837Z,83.73
2017-08-08T11:39:23.126Z,83.75
2017-08-08T11:40:20.460Z,83.76
2017-08-08T11:41:17.716Z,83.79
2017-08-08T11:42:15.144Z,83.79
2017-08-08T11:43:12.454Z,83.78
2017-08-08T11:44:09.775Z,83.79
2017-08-08T11:45:08.000Z,83.80
2017-08-08T11:46:05.287Z,83.82
2017-08-08T11:47:02.538Z,83.83
2017-08-08T11:47:59.834Z,83.82
2017-08-08T11:48:57.093Z,83.82
2017-08-08T11:49:54.425Z,83.83
2017-08-08T11:50:51.677Z,83.82
2017-08-08T11:51:48.953Z,83.80
2017-08-08T11:52:46.255Z,83.79
2017-08-08T11:53:43.568Z,83.79
2017-08-08T11:54:40.814Z,83.79
2017-08-08T11:55:38.088Z,83.79
2017-08-08T11:56:35.446Z,83.79
2017-08-08T11:57:32.729Z,83.79
2017-08-08T11:58:29.966Z,83.83
2017-08-08T11:59:27.266Z,83.83
2017-08-08T12:00:24.571Z,83.81
2017-08-08T12:01:21.917Z,83.82
2017-08-08T12:02:19.299Z,83.83
2017-08-08T12:03:16.612Z,83.84
2017-08-08T12:04:13.919Z,83.89
2017-08-08T12:05:11.200Z,83.89
2017-08-08T12:06:08.464Z,83.90
2017-08-08T12:07:05.801Z,83.89
2017-08-08T12:08:03.060Z,83.90
2017-08-08T12:09:00.340Z,83.93
2017-08-08T12:09:57.632Z,83.91
2017-08-08T12:10:54.916Z,83.91
2017-08-08T12:11:52.156Z,83.92
2017-08-08T12:12:49.560Z,83.96
2017-08-08T12:13:46.840Z,83.97
2017-08-08T12:14:44.140Z,83.99
2017-08-08T12:15:41.449Z,84.00
2017-08-08T12:16:38.777Z,84.01
2017-08-08T12:17:36.106Z,84.02